createdAt,value
2018-05-29T00:01:30.476Z,99.90
2018-05-29T00:04:40.705Z,99.90
2018-05-29T00:07:51.001Z,99.90
2018-05-29T00:11:01.141Z,99.90
2018-05-29T00:14:12.555Z,99.90
2018-05-29T00:17:22.770Z,99.90
2018-05-29T00:20:32.664Z,99.90
2018-05-29T00:23:43.285Z,99.90
2018-05-29T00:26:53.025Z,99.90
2018-05-29T00:30:02.496Z,99.90
2018-05-29T00:33:13.580Z,99.90
2018-05-29T00:36:23.920Z,99.90
2018-05-29T00:39:33.762Z,99.90
2018-05-29T00:42:44.664Z,99.90
2018-05-29T00:45:54.656Z,99.90
2018-05-29T00:49:04.940Z,99.90
2018-05-29T00:52:16.093Z,99.90
2018-05-29T00:55:37.576Z,99.90
2018-05-29T00:58:47.742Z,99.90
2018-05-29T01:01:57.656Z,99.90
2018-05-29T01:05:07.613Z,99.90
2018-05-29T01:08:17.981Z,99.90
2018-05-29T01:11:29.336Z,99.90
2018-05-29T01:14:38.820Z,99.90
2018-05-29T01:17:48.463Z,99.90
2018-05-29T01:20:57.837Z,99.90
2018-05-29T01:24:07.445Z,99.90
2018-05-29T01:27:17.833Z,99.90
2018-05-29T01:30:27.908Z,99.90
2018-05-29T01:33:37.920Z,99.90
2018-05-29T01:36:47.359Z,99.90
2018-05-29T01:39:56.801Z,99.90
2018-05-29T01:43:06.682Z,99.90
2018-05-29T01:46:19.097Z,99.90
2018-05-29T01:49:28.463Z,99.90
2018-05-29T01:52:38.451Z,99.90
2018-05-29T01:55:48.424Z,99.90
2018-05-29T01:58:57.917Z,99.90
2018-05-29T02:02:08.123Z,99.90
2018-05-29T02:05:20.217Z,99.90
2018-05-29T02:08:30.685Z,99.90
2018-05-29T02:11:40.022Z,99.90
2018-05-29T02:14:50.228Z,99.90
2018-05-29T02:18:00.486Z,99.90
2018-05-29T02:21:09.977Z,99.90
2018-05-29T02:24:21.275Z,99.90
2018-05-29T02:27:30.744Z,99.90
2018-05-29T02:30:41.016Z,99.90
2018-05-29T02:33:51.584Z,99.90
2018-05-29T02:37:00.875Z,99.90
2018-05-29T02:40:10.558Z,99.90
2018-05-29T02:43:21.353Z,99.90
2018-05-29T02:46:31.881Z,99.90
2018-05-29T02:49:41.642Z,99.90
2018-05-29T02:52:51.744Z,99.90
2018-05-29T02:56:01.313Z,99.90
2018-05-29T02:59:10.803Z,99.90
2018-05-29T03:02:22.424Z,99.90
2018-05-29T03:05:33.488Z,99.90
2018-05-29T03:08:43.684Z,99.90
2018-05-29T03:11:53.556Z,99.90
2018-05-29T03:15:03.416Z,99.90
2018-05-29T03:18:16.091Z,99.90
2018-05-29T03:21:25.847Z,99.90
2018-05-29T03:24:35.735Z,99.90
2018-05-29T03:27:45.848Z,99.90
2018-05-29T03:30:55.296Z,99.90
2018-05-29T03:34:04.984Z,99.90
2018-05-29T03:37:15.132Z,99.90
2018-05-29T03:40:25.440Z,99.90
2018-05-29T03:43:35.226Z,99.90
2018-05-29T03:46:45.518Z,99.90
2018-05-29T03:49:55.015Z,99.90
2018-05-29T03:53:05.116Z,99.90
2018-05-29T03:56:14.990Z,99.90
2018-05-29T03:59:25.220Z,99.90
2018-05-29T04:02:34.653Z,99.90
2018-05-29T04:05:45.106Z,99.90
2018-05-29T04:08:54.741Z,99.90
2018-05-29T04:12:05.100Z,99.90
2018-05-29T04:15:15.269Z,99.90
2018-05-29T04:18:26.112Z,99.90
2018-05-29T04:21:35.900Z,99.90
2018-05-29T04:24:45.608Z,99.90
2018-05-29T04:27:55.826Z,99.90
2018-05-29T04:31:05.191Z,99.90
2018-05-29T04:34:14.549Z,99.90
2018-05-29T04:37:27.165Z,99.90
2018-05-29T04:40:37.529Z,99.90
2018-05-29T04:43:47.000Z,99.90
2018-05-29T04:46:56.970Z,99.90
2018-05-29T04:50:06.685Z,99.90
2018-05-29T04:53:16.198Z,99.90
2018-05-29T04:56:27.689Z,99.90
2018-05-29T04:59:37.569Z,99.90
2018-05-29T05:02:46.897Z,99.90
2018-05-29T05:05:56.449Z,99.90
2018-05-29T05:09:05.968Z,99.90
2018-05-29T05:12:16.049Z,99.90
2018-05-29T05:15:26.393Z,99.90
2018-05-29T05:18:36.461Z,99.90
2018-05-29T05:21:46.031Z,99.90
2018-05-29T05:24:55.470Z,99.90
2018-05-29T05:28:04.968Z,99.90
2018-05-29T05:31:14.416Z,99.90
2018-05-29T05:34:24.680Z,99.90
2018-05-29T05:37:35.252Z,99.90
2018-05-29T05:40:45.155Z,99.90
2018-05-29T05:43:55.028Z,99.90
2018-05-29T05:47:04.407Z,99.90
2018-05-29T05:50:13.749Z,99.90
2018-05-29T05:53:23.673Z,99.90
2018-05-29T05:56:33.923Z,99.90
2018-05-29T05:59:44.259Z,99.90
2018-05-29T06:02:53.596Z,99.90
2018-05-29T06:06:03.188Z,99.90
2018-05-29T06:09:12.596Z,99.90
2018-05-29T06:12:22.066Z,99.90
2018-05-29T06:18:42.200Z,99.90
2018-05-29T06:21:53.163Z,99.90
2018-05-29T06:25:03.477Z,99.90
2018-05-29T06:28:12.933Z,99.90
2018-05-29T06:31:22.456Z,99.90
2018-05-29T06:34:32.632Z,99.90
2018-05-29T06:37:42.218Z,99.90
2018-05-29T06:40:52.464Z,99.90
2018-05-29T06:44:01.917Z,99.90
2018-05-29T06:47:12.281Z,99.90
2018-05-29T06:50:22.593Z,99.90
2018-05-29T06:53:32.610Z,99.90
2018-05-29T06:56:42.129Z,99.90
2018-05-29T06:59:51.557Z,99.90
2018-05-29T07:03:01.776Z,99.90
2018-05-29T07:06:11.725Z,99.90
2018-05-29T07:09:38.553Z,99.90
2018-05-29T07:12:48.300Z,99.90
2018-05-29T07:15:57.680Z,99.90
2018-05-29T07:19:07.857Z,99.90
2018-05-29T07:22:18.049Z,99.90
2018-05-29T07:25:27.557Z,99.90
2018-05-29T07:28:36.809Z,99.90
2018-05-29T07:31:46.866Z,99.90
2018-05-29T07:34:56.861Z,99.90
2018-05-29T07:38:07.124Z,99.90
2018-05-29T07:41:16.458Z,99.90
2018-05-29T07:44:25.804Z,99.90
2018-05-29T07:47:35.149Z,99.90
2018-05-29T07:50:44.648Z,99.90
2018-05-29T07:53:54.178Z,99.90
2018-05-29T07:57:03.917Z,99.90
2018-05-29T08:00:14.137Z,99.90
2018-05-29T08:03:23.854Z,99.90
2018-05-29T08:06:34.073Z,99.90
2018-05-29T08:09:43.943Z,99.90
2018-05-29T08:12:53.416Z,99.90
2018-05-29T08:16:02.896Z,99.90
2018-05-29T08:19:12.651Z,99.90
2018-05-29T08:22:22.824Z,99.90
2018-05-29T08:25:32.654Z,99.90
2018-05-29T08:28:42.033Z,99.90
2018-05-29T08:31:51.285Z,99.90
2018-05-29T08:35:00.813Z,99.90
2018-05-29T08:38:10.976Z,99.90
2018-05-29T08:41:21.128Z,99.90
2018-05-29T08:44:30.434Z,99.90
2018-05-29T08:47:39.895Z,99.90
2018-05-29T08:50:49.352Z,99.90
2018-05-29T08:53:58.733Z,99.90
2018-05-29T08:57:08.291Z,99.90
2018-05-29T09:00:17.746Z,99.90
2018-05-29T09:03:27.032Z,99.90
2018-05-29T09:06:36.552Z,99.90
2018-05-29T09:09:45.840Z,99.90
2018-05-29T09:12:55.228Z,99.90
2018-05-29T09:16:04.654Z,99.90
2018-05-29T09:19:13.966Z,99.90
2018-05-29T09:22:23.329Z,99.90
2018-05-29T09:25:33.453Z,98.90
2018-05-29T09:28:42.762Z,99.20
2018-05-29T09:31:52.088Z,99.80
2018-05-29T09:35:02.328Z,98.70
2018-05-29T09:38:12.630Z,98.30
2018-05-29T09:41:22.060Z,97.90
2018-05-29T09:44:31.598Z,95.90
2018-05-29T09:47:41.004Z,95.60
2018-05-29T09:50:50.460Z,94.20
2018-05-29T09:53:59.940Z,94.80
2018-05-29T09:57:09.433Z,93.80
2018-05-29T10:00:25.212Z,93.60
2018-05-29T10:03:34.549Z,93.60
2018-05-29T10:06:43.884Z,92.70
2018-05-29T10:09:53.960Z,92.20
2018-05-29T10:13:03.189Z,92.60
2018-05-29T10:16:12.493Z,91.60
2018-05-29T10:19:21.808Z,90.80
2018-05-29T10:22:31.252Z,90.80
2018-05-29T10:25:40.704Z,89.80
2018-05-29T10:28:51.673Z,89.20
2018-05-29T10:32:01.021Z,87.30
2018-05-29T10:35:10.577Z,90.70
2018-05-29T10:38:20.016Z,90.20
2018-05-29T10:41:29.580Z,91.10
2018-05-29T10:44:39.748Z,88.70
2018-05-29T10:47:49.992Z,85.60
2018-05-29T10:50:59.477Z,86.10
2018-05-29T10:54:08.969Z,86.10
2018-05-29T10:57:18.882Z,84.90
2018-05-29T11:00:28.961Z,81.60
2018-05-29T11:03:39.297Z,78.70
2018-05-29T11:06:49.648Z,80.20
2018-05-29T11:09:58.946Z,81.40
2018-05-29T11:13:08.724Z,80.20
2018-05-29T11:16:18.737Z,80.60
2018-05-29T11:19:28.904Z,78.60
2018-05-29T11:22:38.214Z,75.70
2018-05-29T11:25:47.502Z,75.40
2018-05-29T11:28:56.928Z,73.30
2018-05-29T11:32:06.406Z,73.50
2018-05-29T11:35:15.881Z,72.70
2018-05-29T11:38:26.158Z,72.20
2018-05-29T11:41:35.499Z,72.20
2018-05-29T11:44:45.911Z,68.00
2018-05-29T11:47:55.362Z,68.80
2018-05-29T11:51:06.037Z,70.10
2018-05-29T11:54:16.300Z,66.80
2018-05-29T11:57:25.660Z,68.90
2018-05-29T12:00:35.008Z,64.80
2018-05-29T12:03:44.518Z,64.50
2018-05-29T12:06:53.840Z,69.30
2018-05-29T12:10:03.321Z,66.80
2018-05-29T12:13:12.753Z,66.80
2018-05-29T12:16:22.220Z,67.20
2018-05-29T12:19:31.701Z,67.20
2018-05-29T12:22:41.433Z,67.10
2018-05-29T12:25:50.860Z,70.30
2018-05-29T12:29:00.264Z,67.80
2018-05-29T12:32:09.576Z,65.10
2018-05-29T12:35:19.039Z,66.60
2018-05-29T12:38:28.443Z,65.40
2018-05-29T12:41:38.089Z,64.70
2018-05-29T12:44:47.456Z,65.50
2018-05-29T12:47:56.785Z,68.70
2018-05-29T12:51:06.285Z,69.50
2018-05-29T12:54:16.494Z,71.70
2018-05-29T12:57:26.177Z,75.10
2018-05-29T13:00:36.297Z,72.40
2018-05-29T13:03:46.509Z,72.10
2018-05-29T13:06:55.817Z,72.00
2018-05-29T13:10:05.297Z,68.80
2018-05-29T13:13:14.765Z,69.20
2018-05-29T13:16:24.393Z,70.20
2018-05-29T13:19:34.633Z,69.30
2018-05-29T13:22:44.018Z,69.40
2018-05-29T13:25:53.551Z,68.90
2018-05-29T13:29:03.665Z,69.00
2018-05-29T13:32:16.828Z,67.40
2018-05-29T13:35:26.204Z,66.50
2018-05-29T13:38:35.695Z,68.60
2018-05-29T13:41:44.994Z,68.90
2018-05-29T13:44:54.273Z,70.00
2018-05-29T13:48:03.645Z,72.40
2018-05-29T13:51:13.108Z,74.00
2018-05-29T13:54:22.549Z,75.10
2018-05-29T13:57:32.929Z,76.00
2018-05-29T14:00:42.360Z,78.40
2018-05-29T14:03:51.740Z,78.50
2018-05-29T14:07:01.105Z,80.30
2018-05-29T14:10:10.560Z,80.40
2018-05-29T14:13:20.098Z,78.10
2018-05-29T14:16:30.289Z,79.10
2018-05-29T14:19:39.595Z,80.00
2018-05-29T14:22:49.155Z,79.20
2018-05-29T14:25:58.432Z,83.70
2018-05-29T14:29:07.919Z,87.80
2018-05-29T14:32:17.367Z,84.00
2018-05-29T14:35:26.701Z,86.50
2018-05-29T14:38:36.133Z,84.60
2018-05-29T14:41:45.522Z,85.30
2018-05-29T14:44:55.513Z,86.80
2018-05-29T14:48:04.961Z,88.20
2018-05-29T14:51:14.412Z,90.00
2018-05-29T14:54:23.887Z,90.80
2018-05-29T14:57:33.381Z,91.00
2018-05-29T15:00:42.832Z,91.60
2018-05-29T15:03:52.527Z,92.50
2018-05-29T15:07:01.721Z,93.00
2018-05-29T15:10:12.396Z,92.80
2018-05-29T15:13:21.860Z,94.10
2018-05-29T15:16:31.409Z,94.60
2018-05-29T15:19:40.859Z,94.70
2018-05-29T15:22:50.631Z,94.10
2018-05-29T15:26:00.920Z,94.00
2018-05-29T15:29:11.717Z,93.90
2018-05-29T15:32:21.541Z,95.10
2018-05-29T15:35:30.815Z,95.10
2018-05-29T15:38:40.381Z,94.50
2018-05-29T15:41:50.621Z,94.50
2018-05-29T15:45:00.001Z,95.10
2018-05-29T15:48:10.097Z,94.50
2018-05-29T15:51:20.424Z,96.30
2018-05-29T15:54:30.271Z,97.80
2018-05-29T15:57:40.725Z,97.70
2018-05-29T16:00:51.786Z,98.60
2018-05-29T16:04:01.360Z,99.90
2018-05-29T16:07:15.806Z,99.90
2018-05-29T16:10:25.457Z,99.90
2018-05-29T16:13:35.807Z,99.90
2018-05-29T16:16:45.733Z,99.90
2018-05-29T16:19:56.033Z,99.90
2018-05-29T16:23:06.070Z,99.90
2018-05-29T16:26:16.198Z,99.90
2018-05-29T16:29:25.640Z,99.90
2018-05-29T16:32:35.316Z,99.90
2018-05-29T16:35:45.258Z,99.90
2018-05-29T16:38:55.008Z,99.90
2018-05-29T16:42:04.422Z,99.90
2018-05-29T16:45:18.002Z,99.90
2018-05-29T16:48:27.601Z,99.90
2018-05-29T16:51:38.761Z,99.90
2018-05-29T16:54:48.628Z,99.90
2018-05-29T16:57:59.319Z,99.90
2018-05-29T17:01:08.570Z,99.90
2018-05-29T17:04:19.461Z,99.90
2018-05-29T17:07:29.083Z,99.90
2018-05-29T17:10:39.023Z,99.90
2018-05-29T17:13:49.129Z,99.90
2018-05-29T17:16:59.768Z,99.90
2018-05-29T17:20:10.274Z,99.90
2018-05-29T17:23:20.682Z,99.90
2018-05-29T17:26:30.165Z,99.90
2018-05-29T17:29:40.454Z,99.90
2018-05-29T17:32:49.956Z,99.90
2018-05-29T17:36:00.028Z,99.90
2018-05-29T17:39:10.311Z,99.90
2018-05-29T17:42:19.917Z,99.90
2018-05-29T17:45:30.065Z,99.90
2018-05-29T17:48:39.711Z,99.90
2018-05-29T17:51:49.680Z,99.90
2018-05-29T17:55:01.152Z,99.90
2018-05-29T17:58:11.060Z,99.90
2018-05-29T18:01:20.711Z,99.90
2018-05-29T18:04:31.694Z,99.90
2018-05-29T18:07:41.394Z,99.90
2018-05-29T18:10:51.205Z,99.90
2018-05-29T18:14:01.328Z,99.90
2018-05-29T18:17:12.100Z,99.90
2018-05-29T18:20:22.024Z,99.90
2018-05-29T18:23:33.612Z,99.90
2018-05-29T18:26:46.841Z,99.90
2018-05-29T18:30:01.457Z,99.90
2018-05-29T18:33:12.683Z,99.90
2018-05-29T18:36:24.312Z,99.90
2018-05-29T18:39:36.538Z,99.90
2018-05-29T18:42:46.456Z,99.90
2018-05-29T18:45:56.408Z,99.90
2018-05-29T18:49:08.479Z,99.90
2018-05-29T18:52:18.128Z,99.90
2018-05-29T18:55:28.185Z,99.90
2018-05-29T18:58:39.400Z,99.90
2018-05-29T19:01:49.872Z,99.90
2018-05-29T19:05:00.091Z,99.90
2018-05-29T19:08:10.548Z,99.90
2018-05-29T19:11:25.799Z,99.90
2018-05-29T19:14:35.623Z,99.90
2018-05-29T19:17:45.606Z,99.90
2018-05-29T19:20:57.153Z,99.90
2018-05-29T19:24:08.613Z,99.90
2018-05-29T19:27:18.682Z,99.90
2018-05-29T19:30:28.550Z,99.90
2018-05-29T19:33:38.425Z,99.90
2018-05-29T19:36:49.907Z,99.90
2018-05-29T19:39:59.771Z,99.90
2018-05-29T19:43:09.861Z,99.90
2018-05-29T19:46:19.282Z,99.90
2018-05-29T19:52:39.263Z,99.90
2018-05-29T19:55:48.936Z,99.90
2018-05-29T19:58:59.481Z,99.90
2018-05-29T20:02:10.191Z,99.90
2018-05-29T20:05:20.085Z,99.90
2018-05-29T20:08:30.161Z,99.90
2018-05-29T20:11:40.419Z,99.90
2018-05-29T20:14:49.879Z,99.90
2018-05-29T20:18:00.028Z,99.90
2018-05-29T20:21:10.605Z,99.90
2018-05-29T20:24:20.225Z,99.90
2018-05-29T20:27:30.073Z,99.90
2018-05-29T20:30:40.272Z,99.90
2018-05-29T20:33:50.101Z,99.90
2018-05-29T20:37:01.003Z,99.90
2018-05-29T20:40:13.721Z,99.90
2018-05-29T20:43:23.829Z,99.90
2018-05-29T20:46:33.198Z,99.90
2018-05-29T20:49:42.661Z,99.90
2018-05-29T20:52:52.180Z,99.90
2018-05-29T20:56:01.940Z,99.90
2018-05-29T20:59:12.127Z,99.90
2018-05-29T21:02:21.501Z,99.90
2018-05-29T21:05:32.027Z,99.90
2018-05-29T21:08:42.072Z,99.90
2018-05-29T21:11:51.616Z,99.90
2018-05-29T21:15:02.874Z,99.90
2018-05-29T21:18:13.832Z,99.90
2018-05-29T21:21:24.158Z,99.90
2018-05-29T21:24:34.021Z,99.90
2018-05-29T21:27:44.221Z,99.90
2018-05-29T21:30:54.540Z,99.90
2018-05-29T21:34:04.026Z,99.90
2018-05-29T21:37:14.252Z,99.90
2018-05-29T21:40:23.860Z,99.90
2018-05-29T21:43:33.685Z,99.90
2018-05-29T21:46:43.996Z,99.90
2018-05-29T21:49:54.132Z,99.90
2018-05-29T21:53:03.950Z,99.90
2018-05-29T21:56:14.777Z,99.90
2018-05-29T21:59:25.069Z,99.90
2018-05-29T22:02:34.811Z,99.90
2018-05-29T22:05:44.973Z,99.90
2018-05-29T22:08:55.086Z,99.90
2018-05-29T22:12:05.622Z,99.90
2018-05-29T22:15:16.243Z,99.90
2018-05-29T22:18:25.768Z,99.90
2018-05-29T22:21:35.885Z,99.90
2018-05-29T22:27:55.998Z,99.90
2018-05-29T22:31:06.169Z,99.90
2018-05-29T22:34:17.258Z,99.90
2018-05-29T22:37:26.688Z,99.90
2018-05-29T22:40:37.069Z,99.90
2018-05-29T22:43:46.520Z,99.90
2018-05-29T22:46:56.868Z,99.90
2018-05-29T22:50:06.316Z,99.90
2018-05-29T22:53:18.130Z,99.90
2018-05-29T22:56:28.042Z,99.90
2018-05-29T22:59:37.898Z,99.90
2018-05-29T23:02:47.207Z,99.90
2018-05-29T23:05:57.420Z,99.90
2018-05-29T23:09:07.656Z,99.90
2018-05-29T23:12:19.457Z,99.90
2018-05-29T23:15:29.504Z,99.90
2018-05-29T23:18:39.203Z,99.90
2018-05-29T23:21:49.166Z,99.90
2018-05-29T23:24:59.401Z,99.90
2018-05-29T23:28:09.690Z,99.90
2018-05-29T23:31:20.348Z,99.90
2018-05-29T23:34:30.340Z,99.90
2018-05-29T23:37:40.256Z,99.90
2018-05-29T23:40:50.496Z,99.90
2018-05-29T23:43:59.924Z,99.90
2018-05-29T23:47:09.738Z,99.90
2018-05-29T23:50:21.134Z,99.90
2018-05-29T23:53:31.110Z,99.90
2018-05-29T23:56:40.465Z,99.90
2018-05-29T23:59:50.296Z,99.90
